sensor_id;sensor_type;location;lat;lon;timestamp;pressure;altitude;pressure_sealevel;temperature;humidity
61645;BME280;47553;52.428;13.382;2022-08-19T00:00:14;100404.44;;;20.74;100.00
61645;BME280;47553;52.428;13.382;2022-08-19T00:02:15;100423.41;;;20.74;100.00
61645;BME280;47553;52.428;13.382;2022-08-19T00:04:19;100423.09;;;20.77;100.00
61645;BME280;47553;52.428;13.382;2022-08-19T00:06:21;100423.91;;;20.70;100.00
61645;BME280;47553;52.428;13.382;2022-08-19T00:08:22;100423.91;;;20.70;100.00
61645;BME280;47553;52.428;13.382;2022-08-19T00:10:24;100426.28;;;20.73;100.00
61645;BME280;47553;52.428;13.382;2022-08-19T00:12:27;100422.53;;;20.66;100.00
61645;BME280;47553;52.428;13.382;2022-08-19T00:14:29;100411.19;;;20.70;100.00
61645;BME280;47553;52.428;13.382;2022-08-19T00:16:30;100420.53;;;20.76;100.00
61645;BME280;47553;52.428;13.382;2022-08-19T00:18:32;100421.28;;;20.94;100.00
61645;BME280;47553;52.428;13.382;2022-08-19T00:20:34;100429.09;;;20.97;100.00
61645;BME280;47553;52.428;13.382;2022-08-19T00:22:35;100429.78;;;20.99;100.00
61645;BME280;47553;52.428;13.382;2022-08-19T00:24:37;100431.75;;;20.81;100.00
61645;BME280;47553;52.428;13.382;2022-08-19T00:26:40;100418.03;;;20.82;100.00
61645;BME280;47553;52.428;13.382;2022-08-19T00:28:43;100419.84;;;20.74;100.00
61645;BME280;47553;52.428;13.382;2022-08-19T00:30:44;100422.56;;;20.74;100.00
61645;BME280;47553;52.428;13.382;2022-08-19T00:32:46;100413.91;;;20.70;100.00
61645;BME280;47553;52.428;13.382;2022-08-19T00:34:48;100414.03;;;20.61;100.00
61645;BME280;47553;52.428;13.382;2022-08-19T00:36:49;100417.09;;;20.66;100.00
61645;BME280;47553;52.428;13.382;2022-08-19T00:38:51;100408.94;;;20.58;100.00
61645;BME280;47553;52.428;13.382;2022-08-19T00:40:53;100393.53;;;20.58;100.00
61645;BME280;47553;52.428;13.382;2022-08-19T00:42:55;100382.53;;;20.60;100.00
61645;BME280;47553;52.428;13.382;2022-08-19T00:44:58;100385.00;;;20.53;100.00
61645;BME280;47553;52.428;13.382;2022-08-19T00:46:59;100397.34;;;20.47;100.00
61645;BME280;47553;52.428;13.382;2022-08-19T00:49:12;100395.31;;;20.49;100.00
61645;BME280;47553;52.428;13.382;2022-08-19T00:51:16;100402.97;;;20.54;100.00
61645;BME280;47553;52.428;13.382;2022-08-19T00:53:21;100399.19;;;20.47;100.00
61645;BME280;47553;52.428;13.382;2022-08-19T00:55:25;100393.63;;;20.48;100.00
61645;BME280;47553;52.428;13.382;2022-08-19T00:57:30;100400.31;;;20.36;100.00
61645;BME280;47553;52.428;13.382;2022-08-19T00:59:35;100395.97;;;20.43;100.00
61645;BME280;47553;52.428;13.382;2022-08-19T01:01:59;100393.56;;;20.40;100.00
61645;BME280;47553;52.428;13.382;2022-08-19T01:04:00;100404.38;;;20.32;100.00
61645;BME280;47553;52.428;13.382;2022-08-19T01:06:02;100393.84;;;20.29;100.00
61645;BME280;47553;52.428;13.382;2022-08-19T01:08:05;100401.38;;;20.43;100.00
61645;BME280;47553;52.428;13.382;2022-08-19T01:10:09;100397.34;;;20.47;100.00
61645;BME280;47553;52.428;13.382;2022-08-19T01:12:11;100381.72;;;20.41;100.00
61645;BME280;47553;52.428;13.382;2022-08-19T01:14:13;100389.56;;;20.52;100.00
61645;BME280;47553;52.428;13.382;2022-08-19T01:16:17;100393.53;;;20.58;100.00
61645;BME280;47553;52.428;13.382;2022-08-19T01:18:22;100395.44;;;20.66;100.00
61645;BME280;47553;52.428;13.382;2022-08-19T01:20:25;100421.56;;;20.75;100.00
61645;BME280;47553;52.428;13.382;2022-08-19T01:22:29;100422.59;;;20.82;100.00
61645;BME280;47553;52.428;13.382;2022-08-19T01:24:34;100409.72;;;20.84;100.00
61645;BME280;47553;52.428;13.382;2022-08-19T01:26:49;100417.19;;;20.82;100.00
61645;BME280;47553;52.428;13.382;2022-08-19T01:28:53;100423.97;;;20.86;100.00
61645;BME280;47553;52.428;13.382;2022-08-19T01:31:01;100410.00;;;20.65;100.00
61645;BME280;47553;52.428;13.382;2022-08-19T01:33:08;100419.59;;;20.59;100.00
61645;BME280;47553;52.428;13.382;2022-08-19T01:35:12;100423.09;;;20.51;100.00
61645;BME280;47553;52.428;13.382;2022-08-19T01:37:14;100410.56;;;20.50;100.00
61645;BME280;47553;52.428;13.382;2022-08-19T01:39:28;100418.28;;;20.37;100.00
61645;BME280;47553;52.428;13.382;2022-08-19T01:41:30;100399.28;;;20.29;100.00
61645;BME280;47553;52.428;13.382;2022-08-19T01:43:32;100394.78;;;20.20;100.00
61645;BME280;47553;52.428;13.382;2022-08-19T01:45:34;100412.44;;;20.24;100.00
61645;BME280;47553;52.428;13.382;2022-08-19T01:47:37;100404.38;;;20.14;100.00
61645;BME280;47553;52.428;13.382;2022-08-19T01:49:38;100400.25;;;20.02;100.00
61645;BME280;47553;52.428;13.382;2022-08-19T01:51:40;100414.41;;;20.22;100.00
61645;BME280;47553;52.428;13.382;2022-08-19T01:53:42;100440.66;;;20.21;100.00
61645;BME280;47553;52.428;13.382;2022-08-19T01:55:46;100449.94;;;20.19;100.00
61645;BME280;47553;52.428;13.382;2022-08-19T01:57:50;100452.22;;;20.06;100.00
61645;BME280;47553;52.428;13.382;2022-08-19T01:59:53;100433.09;;;20.07;100.00
61645;BME280;47553;52.428;13.382;2022-08-19T02:01:55;100410.91;;;20.04;100.00
61645;BME280;47553;52.428;13.382;2022-08-19T02:03:56;100404.06;;;19.91;100.00
61645;BME280;47553;52.428;13.382;2022-08-19T02:05:59;100405.06;;;19.90;100.00
61645;BME280;47553;52.428;13.382;2022-08-19T02:08:01;100386.13;;;19.90;100.00
61645;BME280;47553;52.428;13.382;2022-08-19T02:10:04;100372.47;;;20.00;100.00
61645;BME280;47553;52.428;13.382;2022-08-19T02:12:14;100340.59;;;19.86;100.00
61645;BME280;47553;52.428;13.382;2022-08-19T02:14:15;100353.47;;;19.92;100.00
61645;BME280;47553;52.428;13.382;2022-08-19T02:16:17;100343.19;;;19.96;100.00
61645;BME280;47553;52.428;13.382;2022-08-19T02:18:19;100337.34;;;19.82;100.00
61645;BME280;47553;52.428;13.382;2022-08-19T02:20:20;100325.94;;;19.97;100.00
61645;BME280;47553;52.428;13.382;2022-08-19T02:22:22;100315.09;;;19.97;100.00
61645;BME280;47553;52.428;13.382;2022-08-19T02:24:24;100318.19;;;20.02;100.00
61645;BME280;47553;52.428;13.382;2022-08-19T02:26:26;100337.44;;;19.99;100.00
61645;BME280;47553;52.428;13.382;2022-08-19T02:28:29;100325.88;;;19.88;100.00
61645;BME280;47553;52.428;13.382;2022-08-19T02:30:30;100326.19;;;19.85;100.00
61645;BME280;47553;52.428;13.382;2022-08-19T02:32:32;100322.72;;;19.75;100.00
61645;BME280;47553;52.428;13.382;2022-08-19T02:34:45;100315.56;;;19.66;100.00
61645;BME280;47553;52.428;13.382;2022-08-19T02:36:46;100302.06;;;19.74;100.00
61645;BME280;47553;52.428;13.382;2022-08-19T02:38:52;100283.09;;;19.66;100.00
61645;BME280;47553;52.428;13.382;2022-08-19T02:40:57;100292.09;;;19.75;100.00
61645;BME280;47553;52.428;13.382;2022-08-19T02:43:00;100293.09;;;19.91;100.00
61645;BME280;47553;52.428;13.382;2022-08-19T02:45:04;100285.69;;;19.76;100.00
61645;BME280;47553;52.428;13.382;2022-08-19T02:47:05;100306.66;;;20.00;100.00
61645;BME280;47553;52.428;13.382;2022-08-19T02:49:08;100298.03;;;19.78;100.00
61645;BME280;47553;52.428;13.382;2022-08-19T02:51:15;100323.09;;;19.80;100.00
61645;BME280;47553;52.428;13.382;2022-08-19T02:53:17;100323.81;;;19.82;100.00
61645;BME280;47553;52.428;13.382;2022-08-19T02:55:19;100320.34;;;19.72;100.00
61645;BME280;47553;52.428;13.382;2022-08-19T02:57:20;100319.16;;;19.75;100.00
61645;BME280;47553;52.428;13.382;2022-08-19T02:59:22;100328.66;;;19.97;100.00
61645;BME280;47553;52.428;13.382;2022-08-19T03:01:27;100331.19;;;19.98;100.00
61645;BME280;47553;52.428;13.382;2022-08-19T03:03:29;100325.56;;;19.91;100.00
61645;BME280;47553;52.428;13.382;2022-08-19T03:05:30;100323.22;;;19.97;100.00
61645;BME280;47553;52.428;13.382;2022-08-19T03:07:52;100322.31;;;19.88;100.00
61645;BME280;47553;52.428;13.382;2022-08-19T03:09:54;100322.38;;;19.96;100.00
61645;BME280;47553;52.428;13.382;2022-08-19T03:11:55;100327.53;;;19.81;100.00
61645;BME280;47553;52.428;13.382;2022-08-19T03:13:58;100328.13;;;19.75;100.00
61645;BME280;47553;52.428;13.382;2022-08-19T03:16:04;100332.22;;;19.79;100.00
61645;BME280;47553;52.428;13.382;2022-08-19T03:18:07;100333.31;;;19.86;100.00
61645;BME280;47553;52.428;13.382;2022-08-19T03:20:09;100318.56;;;19.81;100.00
61645;BME280;47553;52.428;13.382;2022-08-19T03:22:11;100321.72;;;19.76;100.00
61645;BME280;47553;52.428;13.382;2022-08-19T03:24:13;100320.97;;;19.66;100.00
61645;BME280;47553;52.428;13.382;2022-08-19T03:26:16;100325.53;;;19.66;100.00
61645;BME280;47553;52.428;13.382;2022-08-19T03:28:17;100317.25;;;19.67;100.00
61645;BME280;47553;52.428;13.382;2022-08-19T03:30:19;100320.00;;;19.75;100.00
61645;BME280;47553;52.428;13.382;2022-08-19T03:32:24;100317.94;;;19.69;100.00
61645;BME280;47553;52.428;13.382;2022-08-19T03:34:36;100307.91;;;19.61;100.00
61645;BME280;47553;52.428;13.382;2022-08-19T03:36:38;100308.13;;;19.68;100.00
61645;BME280;47553;52.428;13.382;2022-08-19T03:38:42;100306.09;;;19.70;100.00
61645;BME280;47553;52.428;13.382;2022-08-19T03:40:44;100296.25;;;19.61;100.00
61645;BME280;47553;52.428;13.382;2022-08-19T03:42:46;100298.38;;;19.75;100.00
61645;BME280;47553;52.428;13.382;2022-08-19T03:44:49;100304.03;;;19.64;100.00
61645;BME280;47553;52.428;13.382;2022-08-19T03:46:53;100311.84;;;19.67;100.00
61645;BME280;47553;52.428;13.382;2022-08-19T03:48:57;100308.53;;;19.55;100.00
61645;BME280;47553;52.428;13.382;2022-08-19T03:51:00;100313.31;;;19.61;100.00
61645;BME280;47553;52.428;13.382;2022-08-19T03:53:02;100309.38;;;19.56;100.00
61645;BME280;47553;52.428;13.382;2022-08-19T03:55:04;100307.06;;;19.61;100.00
61645;BME280;47553;52.428;13.382;2022-08-19T03:57:06;100311.56;;;19.52;100.00
61645;BME280;47553;52.428;13.382;2022-08-19T03:59:10;100313.00;;;19.65;100.00
61645;BME280;47553;52.428;13.382;2022-08-19T04:01:15;100311.19;;;19.47;100.00
61645;BME280;47553;52.428;13.382;2022-08-19T04:03:17;100307.09;;;19.43;100.00
61645;BME280;47553;52.428;13.382;2022-08-19T04:05:19;100312.72;;;19.50;100.00
61645;BME280;47553;52.428;13.382;2022-08-19T04:07:26;100314.81;;;19.56;100.00
61645;BME280;47553;52.428;13.382;2022-08-19T04:09:28;100315.56;;;19.66;100.00
61645;BME280;47553;52.428;13.382;2022-08-19T04:11:35;100336.78;;;19.79;100.00
61645;BME280;47553;52.428;13.382;2022-08-19T04:13:44;100310.13;;;19.66;100.00
61645;BME280;47553;52.428;13.382;2022-08-19T04:15:46;100332.53;;;19.76;100.00
61645;BME280;47553;52.428;13.382;2022-08-19T04:17:48;100322.97;;;19.64;100.00
61645;BME280;47553;52.428;13.382;2022-08-19T04:19:49;100326.94;;;19.52;100.00
61645;BME280;47553;52.428;13.382;2022-08-19T04:21:53;100336.44;;;19.56;100.00
61645;BME280;47553;52.428;13.382;2022-08-19T04:23:57;100316.06;;;19.44;100.00
61645;BME280;47553;52.428;13.382;2022-08-19T04:25:59;100351.97;;;19.54;100.00
61645;BME280;47553;52.428;13.382;2022-08-19T04:28:01;100342.84;;;19.55;100.00
61645;BME280;47553;52.428;13.382;2022-08-19T04:30:04;100338.44;;;19.54;100.00
61645;BME280;47553;52.428;13.382;2022-08-19T04:32:05;100339.22;;;19.64;100.00
61645;BME280;47553;52.428;13.382;2022-08-19T04:34:11;100343.22;;;19.60;100.00
61645;BME280;47553;52.428;13.382;2022-08-19T04:36:16;100331.78;;;19.66;100.00
61645;BME280;47553;52.428;13.382;2022-08-19T04:38:21;100312.84;;;19.66;100.00
61645;BME280;47553;52.428;13.382;2022-08-19T04:40:24;100329.13;;;19.74;100.00
61645;BME280;47553;52.428;13.382;2022-08-19T04:42:26;100334.78;;;19.81;100.00
61645;BME280;47553;52.428;13.382;2022-08-19T04:44:32;100336.06;;;19.94;100.00
61645;BME280;47553;52.428;13.382;2022-08-19T04:46:36;100338.09;;;19.92;100.00
61645;BME280;47553;52.428;13.382;2022-08-19T04:48:41;100327.66;;;19.80;100.00
61645;BME280;47553;52.428;13.382;2022-08-19T04:50:50;100332.69;;;19.92;100.00
61645;BME280;47553;52.428;13.382;2022-08-19T04:52:51;100331.41;;;20.05;100.00
61645;BME280;47553;52.428;13.382;2022-08-19T04:54:53;100348.06;;;20.18;100.00
61645;BME280;47553;52.428;13.382;2022-08-19T04:56:56;100327.47;;;20.25;100.00
61645;BME280;47553;52.428;13.382;2022-08-19T04:58:59;100331.50;;;20.21;100.00
61645;BME280;47553;52.428;13.382;2022-08-19T05:01:00;100330.66;;;20.20;100.00
61645;BME280;47553;52.428;13.382;2022-08-19T05:03:02;100325.19;;;20.38;100.00
61645;BME280;47553;52.428;13.382;2022-08-19T05:05:08;100326.56;;;20.42;100.00
61645;BME280;47553;52.428;13.382;2022-08-19T05:07:10;100319.97;;;20.87;100.00
61645;BME280;47553;52.428;13.382;2022-08-19T05:09:11;100321.34;;;20.99;100.00
61645;BME280;47553;52.428;13.382;2022-08-19T05:11:17;100319.66;;;20.98;100.00
61645;BME280;47553;52.428;13.382;2022-08-19T05:13:20;100306.31;;;21.29;100.00
61645;BME280;47553;52.428;13.382;2022-08-19T05:15:21;100315.00;;;21.41;100.00
61645;BME280;47553;52.428;13.382;2022-08-19T05:17:23;100311.94;;;21.52;100.00
61645;BME280;47553;52.428;13.382;2022-08-19T05:19:28;100304.31;;;21.72;100.00
61645;BME280;47553;52.428;13.382;2022-08-19T05:21:34;100299.75;;;21.80;100.00
61645;BME280;47553;52.428;13.382;2022-08-19T05:23:36;100292.59;;;21.79;100.00
61645;BME280;47553;52.428;13.382;2022-08-19T05:25:39;100303.78;;;21.76;100.00
61645;BME280;47553;52.428;13.382;2022-08-19T05:27:42;100287.16;;;21.96;100.00
61645;BME280;47553;52.428;13.382;2022-08-19T05:29:45;100305.47;;;22.10;100.00
61645;BME280;47553;52.428;13.382;2022-08-19T05:31:47;100303.41;;;22.20;100.00
61645;BME280;47553;52.428;13.382;2022-08-19T05:33:49;100309.50;;;22.22;100.00
61645;BME280;47553;52.428;13.382;2022-08-19T05:35:51;100305.47;;;22.10;100.00
61645;BME280;47553;52.428;13.382;2022-08-19T05:37:53;100304.81;;;21.83;100.00
61645;BME280;47553;52.428;13.382;2022-08-19T05:39:59;100317.03;;;21.88;100.00
61645;BME280;47553;52.428;13.382;2022-08-19T05:42:03;100303.81;;;21.52;100.00
61645;BME280;47553;52.428;13.382;2022-08-19T05:44:05;100298.38;;;21.60;100.00
61645;BME280;47553;52.428;13.382;2022-08-19T05:46:16;100304.47;;;21.62;100.00
61645;BME280;47553;52.428;13.382;2022-08-19T05:48:19;100309.91;;;21.62;100.00
61645;BME280;47553;52.428;13.382;2022-08-19T05:50:20;100311.63;;;21.55;100.00
61645;BME280;47553;52.428;13.382;2022-08-19T05:52:22;100308.91;;;21.47;100.00
61645;BME280;47553;52.428;13.382;2022-08-19T05:54:26;100315.34;;;21.54;100.00
61645;BME280;47553;52.428;13.382;2022-08-19T05:56:28;100324.50;;;21.45;100.00
61645;BME280;47553;52.428;13.382;2022-08-19T05:58:30;100320.03;;;21.03;100.00
61645;BME280;47553;52.428;13.382;2022-08-19T06:00:31;100339.03;;;21.19;100.00
61645;BME280;47553;52.428;13.382;2022-08-19T06:02:34;100339.22;;;21.26;100.00
61645;BME280;47553;52.428;13.382;2022-08-19T06:04:36;100319.00;;;21.04;100.00
61645;BME280;47553;52.428;13.382;2022-08-19T06:06:37;100341.84;;;21.02;100.00
61645;BME280;47553;52.428;13.382;2022-08-19T06:08:39;100333.25;;;21.06;100.00
61645;BME280;47553;52.428;13.382;2022-08-19T06:10:41;100339.03;;;21.19;100.00
61645;BME280;47553;52.428;13.382;2022-08-19T06:12:43;100316.31;;;21.12;100.00
61645;BME280;47553;52.428;13.382;2022-08-19T06:14:44;100314.97;;;21.25;100.00
61645;BME280;47553;52.428;13.382;2022-08-19T06:16:46;100320.72;;;21.22;100.00
61645;BME280;47553;52.428;13.382;2022-08-19T06:18:50;100306.53;;;21.36;100.00
61645;BME280;47553;52.428;13.382;2022-08-19T06:20:52;100319.59;;;21.40;100.00
61645;BME280;47553;52.428;13.382;2022-08-19T06:22:56;100325.53;;;21.52;100.00
61645;BME280;47553;52.428;13.382;2022-08-19T06:24:58;100322.47;;;21.55;100.00
61645;BME280;47553;52.428;13.382;2022-08-19T06:27:00;100326.88;;;21.56;100.00
61645;BME280;47553;52.428;13.382;2022-08-19T06:29:03;100330.09;;;21.68;100.00
61645;BME280;47553;52.428;13.382;2022-08-19T06:31:06;100315.69;;;21.51;100.00
61645;BME280;47553;52.428;13.382;2022-08-19T06:33:08;100332.81;;;21.35;100.00
61645;BME280;47553;52.428;13.382;2022-08-19T06:35:11;100332.97;;;21.42;100.00
61645;BME280;47553;52.428;13.382;2022-08-19T06:37:13;100344.16;;;21.55;100.00
61645;BME280;47553;52.428;13.382;2022-08-19T06:39:17;100352.31;;;21.63;100.00
61645;BME280;47553;52.428;13.382;2022-08-19T06:41:20;100344.84;;;21.49;100.00
61645;BME280;47553;52.428;13.382;2022-08-19T06:43:21;100360.78;;;21.68;100.00
61645;BME280;47553;52.428;13.382;2022-08-19T06:45:28;100369.09;;;21.42;100.00
61645;BME280;47553;52.428;13.382;2022-08-19T06:47:35;100373.19;;;21.63;100.00
61645;BME280;47553;52.428;13.382;2022-08-19T06:49:37;100371.13;;;21.65;100.00
61645;BME280;47553;52.428;13.382;2022-08-19T06:51:41;100370.47;;;21.55;100.00
61645;BME280;47553;52.428;13.382;2022-08-19T06:53:44;100377.41;;;21.49;100.00
61645;BME280;47553;52.428;13.382;2022-08-19T06:55:48;100375.88;;;21.55;100.00
61645;BME280;47553;52.428;13.382;2022-08-19T06:57:49;100379.44;;;21.47;100.00
61645;BME280;47553;52.428;13.382;2022-08-19T06:59:51;100388.94;;;21.51;100.00
61645;BME280;47553;52.428;13.382;2022-08-19T07:01:55;100344.63;;;21.26;100.00
61645;BME280;47553;52.428;13.382;2022-08-19T07:03:58;100370.63;;;21.61;100.00
61645;BME280;47553;52.428;13.382;2022-08-19T07:06:02;100360.44;;;21.55;100.00
61645;BME280;47553;52.428;13.382;2022-08-19T07:08:09;100356.88;;;21.63;100.00
61645;BME280;47553;52.428;13.382;2022-08-19T07:10:10;100363.16;;;21.79;100.00
61645;BME280;47553;52.428;13.382;2022-08-19T07:12:13;100355.72;;;21.90;100.00
61645;BME280;47553;52.428;13.382;2022-08-19T07:14:17;100348.25;;;21.92;100.00
61645;BME280;47553;52.428;13.382;2022-08-19T07:16:20;100357.56;;;22.13;100.00
61645;BME280;47553;52.428;13.382;2022-08-19T07:18:29;100359.94;;;22.17;100.00
61645;BME280;47553;52.428;13.382;2022-08-19T07:20:31;100380.81;;;22.16;100.00
61645;BME280;47553;52.428;13.382;2022-08-19T07:22:32;100380.25;;;22.45;100.00
61645;BME280;47553;52.428;13.382;2022-08-19T07:24:36;100377.34;;;22.46;100.00
61645;BME280;47553;52.428;13.382;2022-08-19T07:26:44;100369.69;;;22.50;99.51
61645;BME280;47553;52.428;13.382;2022-08-19T07:28:46;100354.97;;;22.36;100.00
61645;BME280;47553;52.428;13.382;2022-08-19T07:30:53;100368.38;;;22.38;100.00
61645;BME280;47553;52.428;13.382;2022-08-19T07:32:56;100394.16;;;22.50;99.19
61645;BME280;47553;52.428;13.382;2022-08-19T07:34:57;100380.06;;;22.55;100.00
61645;BME280;47553;52.428;13.382;2022-08-19T07:36:59;100398.72;;;22.66;98.35
61645;BME280;47553;52.428;13.382;2022-08-19T07:39:04;100398.91;;;22.56;98.72
61645;BME280;47553;52.428;13.382;2022-08-19T07:41:09;100396.66;;;22.68;99.78
61645;BME280;47553;52.428;13.382;2022-08-19T07:43:11;100394.66;;;22.54;98.86
61645;BME280;47553;52.428;13.382;2022-08-19T07:45:18;100407.19;;;22.71;98.99
61645;BME280;47553;52.428;13.382;2022-08-19T07:47:20;100402.06;;;22.84;98.20
61645;BME280;47553;52.428;13.382;2022-08-19T07:49:41;100398.31;;;22.85;96.77
61645;BME280;47553;52.428;13.382;2022-08-19T07:51:43;100398.78;;;22.97;96.40
61645;BME280;47553;52.428;13.382;2022-08-19T07:53:46;100397.97;;;22.88;97.36
61645;BME280;47553;52.428;13.382;2022-08-19T07:55:48;100411.22;;;22.91;97.64
61645;BME280;47553;52.428;13.382;2022-08-19T07:57:51;100412.81;;;23.08;95.70
61645;BME280;47553;52.428;13.382;2022-08-19T07:59:53;100411.84;;;23.01;96.60
61645;BME280;47553;52.428;13.382;2022-08-19T08:01:55;100414.53;;;23.09;96.72
61645;BME280;47553;52.428;13.382;2022-08-19T08:03:57;100414.38;;;23.03;97.26
61645;BME280;47553;52.428;13.382;2022-08-19T08:05:59;100425.44;;;23.01;96.91
61645;BME280;47553;52.428;13.382;2022-08-19T08:08:01;100423.81;;;22.84;96.54
61645;BME280;47553;52.428;13.382;2022-08-19T08:10:04;100429.41;;;22.91;97.10
61645;BME280;47553;52.428;13.382;2022-08-19T08:12:09;100433.84;;;22.84;97.65
61645;BME280;47553;52.428;13.382;2022-08-19T08:14:35;100444.56;;;22.69;98.73
61645;BME280;47553;52.428;13.382;2022-08-19T08:16:37;100442.22;;;22.50;99.47
61645;BME280;47553;52.428;13.382;2022-08-19T08:18:47;100448.00;;;22.46;100.00
61645;BME280;47553;52.428;13.382;2022-08-19T08:20:54;100439.16;;;22.61;100.00
61645;BME280;47553;52.428;13.382;2022-08-19T08:22:55;100446.47;;;22.60;100.00
61645;BME280;47553;52.428;13.382;2022-08-19T08:25:00;100448.13;;;22.69;98.54
61645;BME280;47553;52.428;13.382;2022-08-19T08:27:02;100445.94;;;22.65;98.87
61645;BME280;47553;52.428;13.382;2022-08-19T08:29:12;100437.28;;;22.69;99.20
61645;BME280;47553;52.428;13.382;2022-08-19T08:31:14;100445.72;;;22.91;97.38
61645;BME280;47553;52.428;13.382;2022-08-19T08:33:18;100442.13;;;22.98;96.81
61645;BME280;47553;52.428;13.382;2022-08-19T08:35:33;100445.50;;;23.00;96.63
61645;BME280;47553;52.428;13.382;2022-08-19T08:37:35;100450.25;;;23.06;97.01
61645;BME280;47553;52.428;13.382;2022-08-19T08:39:37;100441.75;;;23.01;96.55
61645;BME280;47553;52.428;13.382;2022-08-19T08:41:44;100447.78;;;23.20;96.13
61645;BME280;47553;52.428;13.382;2022-08-19T08:43:49;100440.00;;;23.17;95.75
61645;BME280;47553;52.428;13.382;2022-08-19T08:45:56;100453.53;;;23.25;96.56
61645;BME280;47553;52.428;13.382;2022-08-19T08:48:16;100443.31;;;23.35;95.69
61645;BME280;47553;52.428;13.382;2022-08-19T08:50:29;100452.91;;;23.15;96.47
61645;BME280;47553;52.428;13.382;2022-08-19T08:52:37;100453.91;;;23.22;95.95
61645;BME280;47553;52.428;13.382;2022-08-19T08:54:46;100454.66;;;23.07;96.56
61645;BME280;47553;52.428;13.382;2022-08-19T08:56:56;100447.91;;;22.95;97.89
61645;BME280;47553;52.428;13.382;2022-08-19T08:59:00;100452.63;;;23.01;97.86
61645;BME280;47553;52.428;13.382;2022-08-19T09:01:03;100450.59;;;23.03;97.89
61645;BME280;47553;52.428;13.382;2022-08-19T09:03:11;100457.59;;;22.98;98.33
61645;BME280;47553;52.428;13.382;2022-08-19T09:05:15;100461.97;;;23.07;98.53
61645;BME280;47553;52.428;13.382;2022-08-19T09:07:29;100453.69;;;22.92;98.28
61645;BME280;47553;52.428;13.382;2022-08-19T09:09:41;100460.13;;;22.99;97.96
61645;BME280;47553;52.428;13.382;2022-08-19T09:11:55;100458.06;;;23.01;98.01
61645;BME280;47553;52.428;13.382;2022-08-19T09:14:04;100452.91;;;23.15;97.51
61645;BME280;47553;52.428;13.382;2022-08-19T09:16:30;100451.16;;;23.30;95.82
61645;BME280;47553;52.428;13.382;2022-08-19T09:18:42;100457.78;;;23.35;95.24
61645;BME280;47553;52.428;13.382;2022-08-19T09:20:45;100453.91;;;23.22;96.44
61645;BME280;47553;52.428;13.382;2022-08-19T09:22:47;100458.31;;;23.23;96.53
61645;BME280;47553;52.428;13.382;2022-08-19T09:24:49;100447.44;;;23.31;96.13
61645;BME280;47553;52.428;13.382;2022-08-19T09:26:51;100439.44;;;23.29;96.63
61645;BME280;47553;52.428;13.382;2022-08-19T09:28:53;100441.63;;;23.26;97.64
61645;BME280;47553;52.428;13.382;2022-08-19T09:30:54;100443.28;;;23.43;96.51
61645;BME280;47553;52.428;13.382;2022-08-19T09:32:56;100438.13;;;23.48;96.62
61645;BME280;47553;52.428;13.382;2022-08-19T09:34:59;100439.22;;;23.39;96.26
61645;BME280;47553;52.428;13.382;2022-08-19T09:37:03;100437.78;;;23.51;97.32
61645;BME280;47553;52.428;13.382;2022-08-19T09:39:05;100428.25;;;23.55;95.27
61645;BME280;47553;52.428;13.382;2022-08-19T09:41:18;100434.31;;;23.65;95.22
61645;BME280;47553;52.428;13.382;2022-08-19T09:43:20;100430.34;;;23.45;96.08
61645;BME280;47553;52.428;13.382;2022-08-19T09:45:34;100439.34;;;23.46;97.15
61645;BME280;47553;52.428;13.382;2022-08-19T09:47:36;100437.56;;;23.61;96.09
61645;BME280;47553;52.428;13.382;2022-08-19T09:49:41;100436.00;;;23.66;95.03
61645;BME280;47553;52.428;13.382;2022-08-19T09:51:44;100432.34;;;23.51;94.36
61645;BME280;47553;52.428;13.382;2022-08-19T09:53:51;100446.97;;;23.50;95.51
61645;BME280;47553;52.428;13.382;2022-08-19T09:55:54;100448.53;;;23.45;96.40
61645;BME280;47553;52.428;13.382;2022-08-19T09:57:56;100441.81;;;23.32;96.13
61645;BME280;47553;52.428;13.382;2022-08-19T09:59:58;100446.81;;;23.13;97.60
61645;BME280;47553;52.428;13.382;2022-08-19T10:02:00;100443.47;;;23.02;98.61
61645;BME280;47553;52.428;13.382;2022-08-19T10:04:11;100440.72;;;23.02;99.02
61645;BME280;47553;52.428;13.382;2022-08-19T10:06:21;100439.53;;;23.05;98.33
61645;BME280;47553;52.428;13.382;2022-08-19T10:08:45;100446.44;;;23.16;98.36
61645;BME280;47553;52.428;13.382;2022-08-19T10:10:51;100436.41;;;23.16;97.89
61645;BME280;47553;52.428;13.382;2022-08-19T10:12:52;100434.72;;;23.15;97.97
61645;BME280;47553;52.428;13.382;2022-08-19T10:14:54;100438.91;;;23.26;97.66
61645;BME280;47553;52.428;13.382;2022-08-19T10:16:56;100427.75;;;23.13;97.28
61645;BME280;47553;52.428;13.382;2022-08-19T10:18:59;100429.09;;;23.17;97.52
61645;BME280;47553;52.428;13.382;2022-08-19T10:21:07;100425.94;;;23.05;98.85
61645;BME280;47553;52.428;13.382;2022-08-19T10:23:12;100430.72;;;23.03;98.27
61645;BME280;47553;52.428;13.382;2022-08-19T10:25:15;100431.03;;;23.08;98.29
61645;BME280;47553;52.428;13.382;2022-08-19T10:27:16;100433.47;;;22.95;99.35
61645;BME280;47553;52.428;13.382;2022-08-19T10:29:18;100424.09;;;22.97;98.98
61645;BME280;47553;52.428;13.382;2022-08-19T10:31:34;100435.50;;;22.93;98.75
61645;BME280;47553;52.428;13.382;2022-08-19T10:33:56;100431.25;;;22.98;98.85